Time;durP1;ratioP1;P1;durP2;ratioP2;P2;SDS_P1;SDS_P2;PMS_P1;PMS_P2;Temp;Humidity;BMP_temperature;BMP_pressure;BME280_temperature;BME280_humidity;BME280_pressure;Samples;Min_cycle;Max_cycle;Signal;HPM_P1;HPM_P2
2022/11/02 00:00:27;;;;;;;135.70;41.03;;;;;;;9.16;100.00;100081.28;4169654;28;21618;-69
2022/11/02 00:02:54;;;;;;;119.03;38.90;;;;;;;9.23;100.00;100087.69;4322576;28;20504;-67
2022/11/02 00:05:23;;;;;;;135.07;42.13;;;;;;;9.17;100.00;100072.31;4365288;28;22611;-68
2022/11/02 00:07:53;;;;;;;137.97;42.57;;;;;;;9.15;100.00;100079.59;4318291;28;21368;-66
2022/11/02 00:10:21;;;;;;;131.50;40.80;;;;;;;9.20;100.00;100082.69;4235392;28;20621;-67
2022/11/02 00:12:48;;;;;;;131.10;40.97;;;;;;;9.21;100.00;100084.34;4255114;28;20413;-66
2022/11/02 00:15:16;;;;;;;128.83;39.87;;;;;;;9.16;100.00;100086.59;4291971;28;20259;-65
2022/11/02 00:17:55;;;;;;;129.57;40.23;;;;;;;9.26;100.00;100086.56;4278793;28;20290;-66
2022/11/02 00:20:22;;;;;;;131.80;42.80;;;;;;;9.21;100.00;100097.63;4243132;28;20229;-69
2022/11/02 00:22:49;;;;;;;142.47;44.40;;;;;;;9.21;100.00;100088.81;4187322;28;25372;-68
2022/11/02 00:25:17;;;;;;;140.13;43.03;;;;;;;9.18;100.00;100089.94;4193440;28;20234;-68
2022/11/02 00:27:44;;;;;;;149.47;43.07;;;;;;;9.23;100.00;100092.16;4180534;28;20906;-67
2022/11/02 00:30:11;;;;;;;148.77;45.00;;;;;;;9.17;100.00;100079.47;4215307;28;20228;-65
2022/11/02 00:32:37;;;;;;;139.27;43.03;;;;;;;9.26;100.00;100087.38;4177993;28;20237;-66
2022/11/02 00:35:04;;;;;;;156.17;43.80;;;;;;;9.23;100.00;100087.69;4171048;28;20247;-67
2022/11/02 00:37:31;;;;;;;152.13;44.53;;;;;;;9.22;100.00;100088.66;4174012;28;20322;-66
2022/11/02 00:39:58;;;;;;;151.37;45.27;;;;;;;9.23;100.00;100085.03;4173001;28;20239;-67
2022/11/02 00:42:25;;;;;;;147.43;46.63;;;;;;;9.28;100.00;100090.75;4172843;28;20242;-67
2022/11/02 00:44:51;;;;;;;142.57;45.17;;;;;;;9.29;100.00;100092.44;4172164;28;20390;-67
2022/11/02 00:47:18;;;;;;;140.47;44.90;;;;;;;9.26;100.00;100087.38;4166529;28;20286;-67
2022/11/02 00:49:45;;;;;;;144.23;47.47;;;;;;;9.22;100.00;100085.16;4187198;28;20564;-67
2022/11/02 00:52:11;;;;;;;144.73;48.47;;;;;;;9.27;100.00;100083.78;4177950;28;22807;-65
2022/11/02 00:54:38;;;;;;;136.13;46.77;;;;;;;9.33;100.00;100086.81;4178795;28;20251;-66
2022/11/02 00:57:04;;;;;;;141.20;46.13;;;;;;;9.35;100.00;100090.16;4172175;28;20245;-68
2022/11/02 00:59:31;;;;;;;147.17;47.43;;;;;;;9.35;100.00;100085.69;4172473;28;20239;-65
2022/11/02 01:01:57;;;;;;;143.53;47.60;;;;;;;9.42;100.00;100085.94;4162418;28;20243;-67
2022/11/02 01:04:25;;;;;;;155.27;47.87;;;;;;;9.41;100.00;100084.25;4166989;28;20824;-68
2022/11/02 01:06:51;;;;;;;141.07;45.90;;;;;;;9.37;100.00;100088.22;4167508;28;20424;-65
2022/11/02 01:09:18;;;;;;;146.27;47.87;;;;;;;9.36;100.00;100078.56;4168745;28;20244;-67
2022/11/02 01:11:44;;;;;;;145.70;49.17;;;;;;;9.39;100.00;100080.91;4177446;28;22373;-66
2022/11/02 01:14:11;;;;;;;147.67;48.27;;;;;;;9.36;100.00;100073.25;4167810;28;21720;-67
2022/11/02 01:16:39;;;;;;;135.33;47.73;;;;;;;9.40;100.00;100077.28;4169364;28;20343;-67
2022/11/02 01:19:06;;;;;;;149.43;48.80;;;;;;;9.37;100.00;100074.94;4165386;28;21160;-67
2022/11/02 01:21:33;;;;;;;144.90;48.97;;;;;;;9.38;100.00;100079.25;4173125;28;20319;-64
2022/11/02 01:23:59;;;;;;;145.33;49.07;;;;;;;9.35;100.00;100068.94;4179301;28;22284;-65
2022/11/02 01:26:26;;;;;;;146.97;49.73;;;;;;;9.42;100.00;100076.16;4173116;28;20372;-67
2022/11/02 01:28:53;;;;;;;152.67;49.53;;;;;;;9.44;100.00;100081.34;4170589;28;20236;-67
2022/11/02 01:31:19;;;;;;;147.67;50.33;;;;;;;9.69;100.00;100085.97;4158192;28;20388;-66
2022/11/02 01:33:46;;;;;;;155.70;52.10;;;;;;;9.67;100.00;100079.97;4176615;28;20595;-67
2022/11/02 01:36:14;;;;;;;165.37;52.37;;;;;;;9.72;100.00;100076.84;4172533;28;20280;-67
2022/11/02 01:38:41;;;;;;;160.43;49.93;;;;;;;9.62;100.00;100078.72;4171820;28;20425;-68
2022/11/02 01:41:10;;;;;;;186.77;52.00;;;;;;;9.73;100.00;100084.66;4170360;28;20234;-66
2022/11/02 01:43:36;;;;;;;167.10;49.03;;;;;;;9.62;100.00;100082.22;4173536;28;20239;-66
2022/11/02 01:46:10;;;;;;;159.33;48.97;;;;;;;9.68;100.00;100076.31;4169869;28;20244;-67
2022/11/02 01:48:43;;;;;;;167.87;50.00;;;;;;;9.64;100.00;100069.59;4171105;28;21132;-66
2022/11/02 01:51:14;;;;;;;177.50;48.37;;;;;;;9.58;100.00;100075.53;4167242;28;20587;-66
2022/11/02 01:53:44;;;;;;;188.57;49.13;;;;;;;9.52;100.00;100070.78;4173422;28;22479;-68
2022/11/02 01:56:13;;;;;;;169.27;46.53;;;;;;;9.60;100.00;100078.88;4172513;28;20919;-68
2022/11/02 01:58:40;;;;;;;169.27;46.83;;;;;;;9.62;100.00;100082.22;4190272;28;20260;-66
2022/11/02 02:01:08;;;;;;;190.43;48.37;;;;;;;9.59;100.00;100074.53;4154132;28;20831;-68
2022/11/02 02:03:35;;;;;;;186.23;49.23;;;;;;;9.65;100.00;100076.59;4171477;28;20246;-67
2022/11/02 02:06:06;;;;;;;204.37;50.17;;;;;;;9.57;100.00;100073.00;4165004;28;20301;-66
2022/11/02 02:08:35;;;;;;;172.63;49.23;;;;;;;9.64;100.00;100077.56;4175887;28;21664;-68
2022/11/02 02:11:02;;;;;;;201.10;51.10;;;;;;;9.63;100.00;100077.75;4161992;28;20234;-66
2022/11/02 02:13:28;;;;;;;214.20;50.50;;;;;;;9.66;100.00;100080.09;4172038;28;20306;-67
2022/11/02 02:16:13;;;;;;;215.87;52.37;;;;;;;9.68;100.00;100078.97;4171542;28;20241;-66
2022/11/02 02:18:45;;;;;;;283.17;54.23;;;;;;;9.64;100.00;100071.44;4173671;28;20300;-67
2022/11/02 02:21:37;;;;;;;275.77;57.20;;;;;;;9.57;100.00;100068.53;4167628;28;20408;-67
2022/11/02 02:24:25;;;;;;;259.80;56.00;;;;;;;9.50;100.00;100081.59;4176489;28;20246;-67
2022/11/02 02:27:08;;;;;;;232.93;55.13;;;;;;;9.80;100.00;100078.78;4168159;28;20433;-67
2022/11/02 02:29:48;;;;;;;293.40;59.13;;;;;;;9.75;100.00;100081.88;4167432;28;22033;-66
2022/11/02 02:32:33;;;;;;;342.83;62.17;;;;;;;9.92;100.00;100072.25;4187037;28;20270;-67
2022/11/02 02:35:29;;;;;;;335.37;63.60;;;;;;;9.73;100.00;100082.00;4164222;28;20241;-66
2022/11/02 02:38:02;;;;;;;369.07;64.07;;;;;;;9.64;100.00;100084.72;4179989;28;20234;-67
2022/11/02 02:40:34;;;;;;;392.97;65.37;;;;;;;9.78;100.00;100086.88;4183064;28;22052;-68
2022/11/02 02:43:11;;;;;;;341.40;63.37;;;;;;;9.85;100.00;100087.94;4165586;28;20251;-67
2022/11/02 02:45:49;;;;;;;410.50;67.80;;;;;;;9.81;100.00;100088.41;4168038;28;20233;-70
2022/11/02 02:48:20;;;;;;;478.73;72.03;;;;;;;9.67;100.00;100087.09;4157893;28;20242;-69
2022/11/02 02:50:48;;;;;;;591.83;76.03;;;;;;;9.85;100.00;100092.44;4162116;28;20242;-65
2022/11/02 02:53:21;;;;;;;439.87;72.23;;;;;;;9.72;100.00;100085.66;4188947;28;20374;-68
2022/11/02 02:55:48;;;;;;;600.30;80.17;;;;;;;9.65;100.00;100084.59;4158745;28;20245;-67
2022/11/02 02:58:21;;;;;;;537.53;77.10;;;;;;;9.65;100.00;100089.06;4180852;28;20401;-66
2022/11/02 03:00:47;;;;;;;415.30;73.40;;;;;;;9.68;100.00;100084.28;4182760;28;20233;-65
2022/11/02 03:03:20;;;;;;;344.17;69.83;;;;;;;9.73;100.00;100089.97;4168261;28;20358;-66
2022/11/02 03:06:33;;;;;;;426.33;77.03;;;;;;;9.73;100.00;100084.66;4158542;28;20315;-68
2022/11/02 03:09:00;;;;;;;551.63;80.03;;;;;;;9.86;100.00;100091.47;4159634;28;20268;-65
2022/11/02 03:11:27;;;;;;;560.00;84.30;;;;;;;9.86;100.00;100094.97;4152330;28;22373;-67
2022/11/02 03:14:16;;;;;;;450.97;75.90;;;;;;;9.85;100.00;100098.59;4155483;28;20302;-66
2022/11/02 03:16:44;;;;;;;442.93;76.83;;;;;;;9.84;100.00;100085.47;4184639;28;20234;-66
2022/11/02 03:19:33;;;;;;;506.10;83.77;;;;;;;9.94;100.00;100092.38;4168914;28;20240;-66
2022/11/02 03:22:12;;;;;;;397.73;76.50;;;;;;;9.94;100.00;100084.41;4168363;28;20411;-65
2022/11/02 03:24:56;;;;;;;411.20;77.10;;;;;;;10.01;100.00;100092.63;4181380;28;20257;-66
2022/11/02 03:27:32;;;;;;;462.13;80.23;;;;;;;10.09;100.00;100090.06;4172403;28;20616;-67
2022/11/02 03:30:12;;;;;;;409.83;76.60;;;;;;;9.92;100.00;100091.69;4170723;28;20238;-66
2022/11/02 03:32:56;;;;;;;456.60;80.47;;;;;;;10.02;100.00;100086.34;4210979;28;20985;-65
2022/11/02 03:35:34;;;;;;;485.27;84.57;;;;;;;10.06;100.00;100092.16;4178793;28;20234;-67
2022/11/02 03:38:05;;;;;;;454.17;81.10;;;;;;;10.10;100.00;100096.22;4168089;28;20245;-67
2022/11/02 03:40:37;;;;;;;352.33;76.03;;;;;;;10.18;100.00;100098.94;4174281;28;20319;-67
2022/11/02 03:43:04;;;;;;;447.90;82.60;;;;;;;10.04;100.00;100094.13;4161789;28;20242;-68
2022/11/02 03:45:35;;;;;;;488.10;79.63;;;;;;;10.14;100.00;100102.91;4179476;28;20676;-69
2022/11/02 03:48:04;;;;;;;418.83;79.90;;;;;;;10.18;100.00;100111.41;4174600;28;20250;-66
2022/11/02 03:50:33;;;;;;;548.73;90.90;;;;;;;10.12;100.00;100105.72;4171785;28;20238;-66
2022/11/02 03:53:08;;;;;;;406.77;79.03;;;;;;;10.18;100.00;100100.78;4179900;28;21753;-65
2022/11/02 03:55:39;;;;;;;558.40;92.07;;;;;;;10.21;100.00;100103.13;4187834;28;21254;-66
2022/11/02 03:58:09;;;;;;;418.90;82.60;;;;;;;10.24;100.00;100108.16;4182257;28;22401;-67
2022/11/02 04:00:37;;;;;;;575.63;93.73;;;;;;;10.39;100.00;100106.66;4167877;28;20244;-66
2022/11/02 04:03:06;;;;;;;687.93;102.27;;;;;;;10.26;100.00;100112.34;4191027;28;20400;-66
2022/11/02 04:05:34;;;;;;;511.87;88.83;;;;;;;10.32;100.00;100113.56;4184888;28;21077;-66
2022/11/02 04:08:19;;;;;;;601.20;95.53;;;;;;;10.19;100.00;100119.25;4174012;28;25443;-68
2022/11/02 04:16:21;;;;;;;730.30;105.40;;;;;;;10.32;100.00;100118.88;4188818;28;20230;-68
2022/11/02 04:21:38;;;;;;;533.93;93.90;;;;;;;10.38;100.00;100117.47;4174336;28;22252;-66
2022/11/02 04:27:07;;;;;;;693.67;106.80;;;;;;;10.31;100.00;100117.22;4140992;29;20241;-66
2022/11/02 04:29:33;;;;;;;774.37;110.00;;;;;;;10.31;100.00;100114.56;4167205;28;21249;-66
2022/11/02 04:32:00;;;;;;;802.00;117.00;;;;;;;10.29;100.00;100112.06;4167468;28;20238;-68
2022/11/02 04:34:26;;;;;;;680.63;107.13;;;;;;;10.34;100.00;100115.09;4174048;28;20451;-67
2022/11/02 04:36:52;;;;;;;480.03;94.90;;;;;;;10.37;100.00;100124.59;4176223;28;20239;-66
2022/11/02 04:39:19;;;;;;;745.07;117.63;;;;;;;10.41;100.00;100125.97;4175300;28;21110;-65
2022/11/02 04:41:45;;;;;;;640.10;104.70;;;;;;;10.39;100.00;100125.28;4169626;28;21268;-68
2022/11/02 04:44:19;;;;;;;732.20;109.93;;;;;;;10.43;100.00;100126.66;4175099;28;20241;-70
2022/11/02 04:46:50;;;;;;;557.47;101.70;;;;;;;10.49;100.00;100123.41;4171480;28;20647;-65
2022/11/02 04:49:17;;;;;;;861.13;119.83;;;;;;;10.43;100.00;100118.66;4167980;28;21298;-67
2022/11/02 04:51:43;;;;;;;658.40;104.13;;;;;;;10.50;100.00;100110.91;4169118;28;21241;-64
2022/11/02 04:54:15;;;;;;;807.17;115.40;;;;;;;10.43;100.00;100124.00;4173449;28;20238;-66
2022/11/02 04:56:41;;;;;;;763.53;111.93;;;;;;;10.55;100.00;100125.44;4188977;28;20315;-67
2022/11/02 04:59:08;;;;;;;873.03;123.23;;;;;;;10.45;100.00;100124.69;4179249;28;20293;-68
2022/11/02 05:01:34;;;;;;;589.43;103.40;;;;;;;10.59;100.00;100128.63;4182302;28;22474;-65
2022/11/02 05:04:01;;;;;;;908.50;125.90;;;;;;;10.53;100.00;100132.72;4173709;28;20795;-70
2022/11/02 05:06:28;;;;;;;743.87;116.57;;;;;;;10.54;100.00;100126.44;4172134;28;21048;-66
2022/11/02 05:08:54;;;;;;;864.90;121.80;;;;;;;10.48;100.00;100132.34;4173375;28;20242;-64
2022/11/02 05:11:21;;;;;;;842.40;122.23;;;;;;;10.48;100.00;100132.34;4169977;28;20246;-66
2022/11/02 05:13:47;;;;;;;667.53;110.73;;;;;;;10.69;100.00;100129.38;4191209;28;20245;-67
2022/11/02 05:16:15;;;;;;;762.33;116.83;;;;;;;10.61;100.00;100139.13;4174609;28;21571;-66
2022/11/02 05:18:41;;;;;;;886.67;127.30;;;;;;;10.59;100.00;100139.28;4170095;28;20234;-66
2022/11/02 05:21:09;;;;;;;639.30;112.13;;;;;;;10.55;100.00;100148.53;4164058;28;20529;-66
2022/11/02 05:23:35;;;;;;;699.73;117.10;;;;;;;10.60;100.00;100145.44;4157731;28;21200;-66
2022/11/02 05:26:04;;;;;;;901.17;130.70;;;;;;;10.56;100.00;100151.06;4172183;28;20338;-68
2022/11/02 05:28:31;;;;;;;598.90;113.30;;;;;;;10.62;100.00;100152.25;4181735;28;21772;-66
2022/11/02 05:30:59;;;;;;;608.77;112.23;;;;;;;10.63;100.00;100145.97;4167862;28;20240;-66
2022/11/02 05:33:29;;;;;;;537.23;105.23;;;;;;;10.66;100.00;100150.16;4168233;28;20595;-67
2022/11/02 05:35:57;;;;;;;599.60;116.80;;;;;;;10.67;100.00;100157.13;4171979;28;20276;-66
2022/11/02 05:38:25;;;;;;;655.43;130.90;;;;;;;10.62;100.00;100154.09;4174166;28;20250;-65
2022/11/02 05:40:56;;;;;;;657.83;115.53;;;;;;;10.60;100.00;100158.72;4167216;28;20298;-67
2022/11/02 05:43:23;;;;;;;587.73;109.10;;;;;;;10.65;100.00;100154.66;4174729;28;20281;-68
2022/11/02 05:46:00;;;;;;;574.10;109.57;;;;;;;10.70;100.00;100157.69;4172186;28;20238;-66
2022/11/02 05:48:30;;;;;;;555.23;111.70;;;;;;;10.75;100.00;100166.03;4173528;28;20688;-65
2022/11/02 05:51:02;;;;;;;545.60;111.00;;;;;;;10.85;100.00;100168.59;4173606;28;21077;-66
2022/11/02 05:53:32;;;;;;;561.63;108.13;;;;;;;10.85;100.00;100165.94;4160680;28;20233;-66
2022/11/02 05:56:01;;;;;;;574.67;107.13;;;;;;;10.83;100.00;100177.75;4171983;28;23172;-66
2022/11/02 05:58:28;;;;;;;557.40;105.70;;;;;;;10.81;100.00;100179.72;4173070;28;22527;-68
2022/11/02 06:00:57;;;;;;;575.87;109.27;;;;;;;10.87;100.00;100181.78;4171229;28;20699;-67
2022/11/02 06:03:25;;;;;;;513.20;102.63;;;;;;;10.82;100.00;100179.56;4182633;28;20343;-68
2022/11/02 06:05:55;;;;;;;512.63;100.27;;;;;;;10.83;100.00;100175.91;4170281;28;20234;-66
2022/11/02 06:08:22;;;;;;;507.37;96.60;;;;;;;10.81;100.00;100179.72;4174023;28;20359;-68
2022/11/02 06:10:49;;;;;;;550.00;103.67;;;;;;;10.81;100.00;100180.53;4174856;28;21734;-67
2022/11/02 06:13:15;;;;;;;504.13;96.80;;;;;;;10.84;100.00;100185.59;4168389;28;20441;-67
2022/11/02 06:15:42;;;;;;;518.20;95.03;;;;;;;10.93;100.00;100189.13;4182783;28;21202;-67
2022/11/02 06:18:08;;;;;;;493.87;92.80;;;;;;;10.92;100.00;100196.28;4175832;28;20317;-66
2022/11/02 06:20:35;;;;;;;467.07;89.30;;;;;;;10.84;100.00;100190.91;4173121;28;20258;-68
2022/11/02 06:23:01;;;;;;;447.83;88.10;;;;;;;10.97;100.00;100201.97;4170198;28;20470;-65
2022/11/02 06:25:29;;;;;;;427.30;85.37;;;;;;;10.98;100.00;100203.69;4173185;28;20703;-66
2022/11/02 06:27:56;;;;;;;449.60;87.60;;;;;;;10.97;100.00;100206.47;4172272;28;20702;-68
2022/11/02 06:30:25;;;;;;;402.57;83.13;;;;;;;11.01;100.00;100205.19;4166037;28;20407;-62
2022/11/02 06:32:53;;;;;;;395.40;79.03;;;;;;;11.06;100.00;100210.06;4173555;28;22099;-72
2022/11/02 06:35:20;;;;;;;424.37;82.20;;;;;;;11.05;100.00;100213.69;4171222;28;20312;-75
2022/11/02 06:37:47;;;;;;;374.50;76.50;;;;;;;10.94;100.00;100206.78;4180160;28;21032;-67
2022/11/02 06:40:14;;;;;;;314.40;72.30;;;;;;;10.97;100.00;100209.16;4173643;28;20296;-68
2022/11/02 06:42:40;;;;;;;297.60;70.00;;;;;;;11.16;100.00;100208.97;4184513;28;20234;-66
2022/11/02 06:45:15;;;;;;;282.93;65.63;;;;;;;11.22;100.00;100215.53;4170525;28;20420;-66
2022/11/02 06:47:42;;;;;;;285.77;67.77;;;;;;;11.28;100.00;100214.88;4176631;28;21020;-69
2022/11/02 06:50:08;;;;;;;288.57;64.37;;;;;;;11.24;100.00;100221.53;4194930;28;20431;-68
2022/11/02 06:52:44;;;;;;;275.90;67.10;;;;;;;11.34;100.00;100216.94;4194143;28;20415;-67
2022/11/02 06:55:11;;;;;;;250.53;64.70;;;;;;;11.31;100.00;100217.25;4184096;28;20252;-69
2022/11/02 06:57:38;;;;;;;255.57;62.13;;;;;;;11.34;100.00;100214.28;4188113;28;21128;-67
2022/11/02 07:00:08;;;;;;;217.97;58.87;;;;;;;11.40;100.00;100218.13;4193495;28;20700;-65
2022/11/02 07:02:34;;;;;;;203.53;55.27;;;;;;;11.47;100.00;100218.34;4197208;28;20233;-69
2022/11/02 07:05:01;;;;;;;202.03;57.17;;;;;;;11.46;100.00;100217.53;4185495;28;22941;-65
2022/11/02 07:07:28;;;;;;;223.00;56.83;;;;;;;11.45;100.00;100215.00;4217396;28;20268;-65
2022/11/02 07:09:54;;;;;;;177.57;53.17;;;;;;;11.46;100.00;100216.69;4208679;28;20237;-66
2022/11/02 07:12:21;;;;;;;176.30;53.40;;;;;;;11.50;100.00;100220.72;4198854;28;20313;-67
2022/11/02 07:14:49;;;;;;;193.83;54.57;;;;;;;11.60;100.00;100218.78;4191497;28;20856;-66
2022/11/02 07:17:15;;;;;;;179.67;50.83;;;;;;;11.57;100.00;100221.75;4238704;28;20967;-67
2022/11/02 07:19:42;;;;;;;157.87;48.87;;;;;;;11.55;100.00;100223.75;4184672;28;23667;-69
2022/11/02 07:22:08;;;;;;;161.57;47.97;;;;;;;11.65;100.00;100227.13;4191058;28;20234;-64
2022/11/02 07:24:35;;;;;;;146.50;46.90;;;;;;;11.64;100.00;100225.47;4193774;28;20253;-66
2022/11/02 07:27:02;;;;;;;154.10;47.30;;;;;;;11.70;100.00;100230.16;4184746;28;20241;-65
2022/11/02 07:29:28;;;;;;;145.27;46.20;;;;;;;11.91;100.00;100231.66;4188187;28;20479;-66
2022/11/02 07:31:55;;;;;;;130.87;45.67;;;;;;;12.09;100.00;100232.41;4170170;28;20254;-65
2022/11/02 07:34:21;;;;;;;135.17;44.30;;;;;;;12.16;100.00;100227.28;4166726;28;20345;-62
2022/11/02 07:36:48;;;;;;;133.23;44.40;;;;;;;12.32;100.00;100226.50;4175757;28;20646;-68
2022/11/02 07:39:15;;;;;;;131.03;43.77;;;;;;;12.31;100.00;100230.16;4182249;28;20239;-66
2022/11/02 07:41:41;;;;;;;134.83;43.97;;;;;;;12.41;100.00;100229.03;4174097;28;20234;-69
2022/11/02 07:44:13;;;;;;;123.97;42.50;;;;;;;12.48;100.00;100231.91;4170539;28;20341;-64
2022/11/02 07:46:39;;;;;;;115.13;41.03;;;;;;;12.69;100.00;100236.78;4192937;28;20304;-66
2022/11/02 07:49:06;;;;;;;111.50;41.40;;;;;;;12.76;100.00;100231.59;4186740;28;21852;-66
2022/11/02 07:51:33;;;;;;;103.57;38.30;;;;;;;12.83;100.00;100229.94;4186946;28;20245;-68
2022/11/02 07:54:00;;;;;;;95.90;37.20;;;;;;;12.98;100.00;100230.97;4173509;28;20341;-67
2022/11/02 07:56:26;;;;;;;96.17;37.47;;;;;;;13.13;100.00;100236.47;4193006;28;20840;-67
2022/11/02 07:58:53;;;;;;;95.13;36.60;;;;;;;13.45;100.00;100233.00;4193288;28;20239;-67
2022/11/02 08:01:20;;;;;;;93.57;35.90;;;;;;;14.06;100.00;100235.22;4255175;28;21060;-71
2022/11/02 08:03:48;;;;;;;80.47;34.47;;;;;;;15.38;100.00;100246.84;4294389;28;20328;-69
2022/11/02 08:06:15;;;;;;;77.40;31.90;;;;;;;16.00;100.00;100246.59;4195677;28;23038;-66
2022/11/02 08:08:42;;;;;;;68.57;29.77;;;;;;;16.63;95.21;100256.91;4192871;28;20239;-66
2022/11/02 08:11:08;;;;;;;72.70;29.33;;;;;;;15.35;100.00;100252.56;4173252;28;20230;-65
2022/11/02 08:13:36;;;;;;;65.30;30.07;;;;;;;14.43;100.00;100239.91;4184982;28;20245;-70
2022/11/02 08:16:03;;;;;;;78.63;31.47;;;;;;;13.98;100.00;100235.22;4211999;28;20286;-68
2022/11/02 08:18:31;;;;;;;60.00;28.83;;;;;;;13.14;100.00;100232.81;4227052;28;21242;-68
2022/11/02 08:20:59;;;;;;;66.00;28.97;;;;;;;12.96;100.00;100227.63;4262983;28;20251;-68
2022/11/02 08:23:26;;;;;;;73.23;31.10;;;;;;;12.66;100.00;100229.91;4240170;28;21868;-71
2022/11/02 08:25:54;;;;;;;67.80;30.50;;;;;;;12.60;100.00;100233.25;4194017;28;20237;-67
2022/11/02 08:28:30;;;;;;;70.47;30.53;;;;;;;12.74;100.00;100228.28;4202087;28;20681;-69
2022/11/02 08:30:58;;;;;;;68.50;30.20;;;;;;;12.72;100.00;100235.63;4216613;28;20312;-68
2022/11/02 08:33:26;;;;;;;73.60;30.80;;;;;;;12.63;100.00;100222.25;4218250;28;20230;-68
2022/11/02 08:35:52;;;;;;;75.67;33.20;;;;;;;12.58;100.00;100221.91;4203310;28;22423;-68
2022/11/02 08:38:33;;;;;;;76.10;33.63;;;;;;;12.66;100.00;100224.56;4188909;28;20272;-66
2022/11/02 08:41:01;;;;;;;73.90;34.20;;;;;;;12.81;100.00;100218.63;4191633;28;20229;-65
2022/11/02 08:43:27;;;;;;;69.07;31.50;;;;;;;12.67;100.00;100220.09;4218573;28;21605;-65
2022/11/02 08:45:58;;;;;;;77.47;33.73;;;;;;;12.54;100.00;100225.88;4212923;28;20620;-67
2022/11/02 08:48:42;;;;;;;73.90;32.53;;;;;;;12.52;100.00;100225.22;4198532;28;20394;-68
2022/11/02 08:51:09;;;;;;;67.17;32.67;;;;;;;12.56;100.00;100225.75;4196282;28;20241;-67
2022/11/02 08:53:36;;;;;;;61.57;31.93;;;;;;;12.63;100.00;100227.59;4233565;28;21528;-66
2022/11/02 08:56:02;;;;;;;60.00;31.70;;;;;;;12.67;100.00;100228.94;4220597;28;22685;-68
2022/11/02 08:58:30;;;;;;;66.37;32.43;;;;;;;12.70;100.00;100227.75;4199833;28;21729;-66
2022/11/02 09:00:56;;;;;;;63.83;32.27;;;;;;;12.71;100.00;100239.28;4175979;28;25238;-66
2022/11/02 09:03:23;;;;;;;66.13;33.40;;;;;;;12.55;100.00;100230.25;4212250;28;20329;-65
2022/11/02 09:05:58;;;;;;;72.03;34.27;;;;;;;12.42;100.00;100229.88;4181660;28;20238;-66
2022/11/02 09:08:27;;;;;;;65.23;33.13;;;;;;;12.38;100.00;100224.00;4164093;28;21203;-69
2022/11/02 09:10:58;;;;;;;69.03;31.77;;;;;;;12.31;100.00;100222.16;4174709;28;20238;-70
2022/11/02 09:13:26;;;;;;;62.87;32.40;;;;;;;12.24;100.00;100224.63;4176804;28;20296;-69
2022/11/02 09:15:55;;;;;;;62.80;32.13;;;;;;;12.20;100.00;100225.97;4203103;28;21596;-65
2022/11/02 09:18:22;;;;;;;66.87;32.40;;;;;;;12.25;100.00;100219.13;4167384;28;21277;-65
2022/11/02 09:20:50;;;;;;;64.00;31.87;;;;;;;12.35;100.00;100218.16;4176677;28;20273;-67
2022/11/02 09:23:19;;;;;;;63.33;31.77;;;;;;;12.40;100.00;100216.66;4159719;28;20241;-66
2022/11/02 09:25:46;;;;;;;63.73;31.03;;;;;;;12.39;100.00;100219.53;4193169;28;20337;-68
2022/11/02 09:28:14;;;;;;;61.47;31.20;;;;;;;12.47;100.00;100216.88;4174567;28;20344;-66
2022/11/02 09:30:41;;;;;;;63.67;31.67;;;;;;;12.49;100.00;100225.53;4181451;28;20290;-46
2022/11/02 09:33:08;;;;;;;59.60;29.60;;;;;;;12.52;100.00;100222.53;4171374;28;20614;-39
2022/11/02 09:35:43;;;;;;;52.27;26.50;;;;;;;12.55;100.00;100224.91;4174152;28;20291;-41
2022/11/02 09:38:10;;;;;;;52.50;26.50;;;;;;;12.76;100.00;100228.94;4179066;28;20563;-39
2022/11/02 09:40:38;;;;;;;52.10;25.43;;;;;;;12.88;100.00;100233.81;4174094;28;20292;-69
2022/11/02 09:43:19;;;;;;;60.90;25.70;;;;;;;12.62;100.00;100231.25;4180574;28;20414;-65
2022/11/02 09:45:55;;;;;;;53.90;26.20;;;;;;;12.55;100.00;100224.91;4207638;28;20243;-66
2022/11/02 09:48:27;;;;;;;61.30;26.03;;;;;;;12.54;100.00;100228.56;4157394;28;20991;-70
2022/11/02 09:51:07;;;;;;;55.63;26.37;;;;;;;12.36;100.00;100228.69;4167672;28;20257;-68
2022/11/02 09:54:02;;;;;;;58.37;26.60;;;;;;;12.29;100.00;100234.81;4188847;28;20793;-70
2022/11/02 09:56:30;;;;;;;55.47;25.03;;;;;;;12.31;100.00;100232.81;4178509;28;20229;-62
2022/11/02 09:59:03;;;;;;;47.00;23.90;;;;;;;12.30;100.00;100229.31;4163412;28;21738;-64
2022/11/02 10:01:46;;;;;;;55.93;25.33;;;;;;;12.24;100.00;100227.28;4180428;28;20234;-67
2022/11/02 10:04:54;;;;;;;56.53;24.43;;;;;;;12.34;100.00;100228.00;4176246;28;21174;-68
2022/11/02 10:07:27;;;;;;;54.23;25.13;;;;;;;12.36;100.00;100234.03;4168029;28;20404;-65
2022/11/02 10:10:00;;;;;;;59.87;25.93;;;;;;;12.28;100.00;100228.66;4193619;28;20277;-64
2022/11/02 10:13:02;;;;;;;62.17;27.30;;;;;;;12.34;100.00;100229.81;4192047;28;20234;-67
2022/11/02 10:15:36;;;;;;;56.17;27.47;;;;;;;12.21;100.00;100233.78;4194028;28;20229;-66
2022/11/02 10:18:03;;;;;;;68.47;27.17;;;;;;;12.24;100.00;100228.16;4200040;28;21219;-64
2022/11/02 10:20:46;;;;;;;60.63;27.10;;;;;;;12.37;100.00;100234.84;4176023;28;20252;-67
2022/11/02 10:23:29;;;;;;;60.03;26.77;;;;;;;12.44;100.00;100238.53;4159847;28;23565;-62
2022/11/02 10:25:55;;;;;;;56.70;25.03;;;;;;;12.42;100.00;100235.19;4175377;28;22700;-63
2022/11/02 10:28:26;;;;;;;53.80;24.17;;;;;;;12.37;100.00;100222.34;4193215;28;20283;-63
2022/11/02 10:30:53;;;;;;;59.47;26.23;;;;;;;12.40;100.00;100227.34;4175743;28;20238;-65
2022/11/02 10:33:25;;;;;;;63.33;24.77;;;;;;;12.43;100.00;100226.19;4170169;28;20339;-67
2022/11/02 10:36:10;;;;;;;55.37;26.17;;;;;;;12.51;100.00;100225.41;4173551;28;22673;-65
2022/11/02 10:39:02;;;;;;;55.00;26.20;;;;;;;12.50;100.00;100224.53;4172489;28;20326;-66
2022/11/02 10:41:35;;;;;;;57.57;26.03;;;;;;;12.51;100.00;100234.22;4188961;28;20371;-66
2022/11/02 10:44:31;;;;;;;62.67;27.00;;;;;;;12.49;100.00;100230.06;4174008;28;20334;-66
2022/11/02 10:47:01;;;;;;;57.73;26.13;;;;;;;12.54;100.00;100233.06;4183112;28;25229;-68
2022/11/02 10:49:46;;;;;;;51.93;24.67;;;;;;;12.54;100.00;100233.91;4213027;28;20225;-65
2022/11/02 10:52:14;;;;;;;58.37;24.67;;;;;;;12.73;100.00;100242.63;4208671;28;25503;-40
2022/11/02 10:54:41;;;;;;;46.90;24.10;;;;;;;12.97;100.00;100237.34;4159400;28;23081;-65
2022/11/02 10:57:11;;;;;;;47.00;23.57;;;;;;;12.96;100.00;100238.31;4168020;28;20485;-65
2022/11/02 10:59:38;;;;;;;53.63;23.23;;;;;;;13.02;100.00;100239.50;4177040;28;20237;-68
2022/11/02 11:02:14;;;;;;;45.77;22.67;;;;;;;13.02;100.00;100232.31;4348587;28;20245;-67
2022/11/02 11:04:41;;;;;;;45.67;23.17;;;;;;;12.90;100.00;100239.00;4294614;28;21217;-70
2022/11/02 11:07:16;;;;;;;45.23;22.90;;;;;;;12.82;100.00;100237.13;4157618;28;20235;-67
2022/11/02 11:09:49;;;;;;;44.10;23.60;;;;;;;12.77;100.00;100235.97;4177987;28;21603;-66
2022/11/02 11:12:20;;;;;;;45.40;21.73;;;;;;;12.97;100.00;100234.66;4222943;28;20705;-68
2022/11/02 11:14:52;;;;;;;46.03;21.40;;;;;;;13.07;100.00;100238.00;4267189;28;20323;-68
2022/11/02 11:17:39;;;;;;;37.57;19.60;;;;;;;13.12;100.00;100242.00;4194454;28;20324;-68
2022/11/02 11:20:33;;;;;;;35.93;18.17;;;;;;;13.16;100.00;100243.34;4158628;28;20366;-69
2022/11/02 11:23:20;;;;;;;33.03;16.33;;;;;;;13.05;100.00;100240.00;4166210;28;20522;-66